Time;durP1;ratioP1;P1;durP2;ratioP2;P2;SDS_P1;SDS_P2;PMS_P1;PMS_P2;Temp;Humidity;BMP_temperature;BMP_pressure;BME280_temperature;BME280_humidity;BME280_pressure;Samples;Min_cycle;Max_cycle;Signal;HPM_P1;HPM_P2
2023/01/03 00:01:27;;;;;;;2.78;0.95;;;5.60;99.90;;;;;;5063369;28;20047;-73
2023/01/03 00:03:54;;;;;;;2.25;0.82;;;5.60;99.90;;;;;;5058241;28;20837;-72
2023/01/03 00:06:26;;;;;;;1.58;0.80;;;5.50;99.90;;;;;;5074885;28;20710;-72
2023/01/03 00:08:53;;;;;;;2.78;0.70;;;5.50;99.90;;;;;;5068618;28;20040;-72
2023/01/03 00:12:22;;;;;;;2.65;1.35;;;5.40;99.90;;;;;;5076270;28;20033;-72
2023/01/03 00:14:11;;;;;;;2.22;1.15;;;5.40;99.90;;;;;;5074946;28;20094;-72
2023/01/03 00:16:36;;;;;;;2.40;1.15;;;5.40;99.90;;;;;;5076169;28;20148;-72
2023/01/03 00:19:07;;;;;;;2.08;1.15;;;5.40;99.90;;;;;;5088758;28;20494;-72
2023/01/03 00:21:33;;;;;;;2.30;0.95;;;5.30;99.90;;;;;;5088289;28;20043;-72
2023/01/03 00:23:59;;;;;;;1.95;1.08;;;5.30;99.90;;;;;;5072504;28;20629;-72
2023/01/03 00:26:24;;;;;;;2.20;1.23;;;5.30;99.90;;;;;;5054919;28;20492;-73
2023/01/03 00:28:50;;;;;;;2.28;1.13;;;5.30;99.90;;;;;;5071374;28;20069;-73
2023/01/03 00:31:15;;;;;;;3.50;1.42;;;5.30;99.90;;;;;;5072513;28;20040;-72
2023/01/03 00:33:41;;;;;;;2.83;1.27;;;5.30;99.90;;;;;;5068654;28;20566;-72
2023/01/03 00:36:08;;;;;;;2.55;1.00;;;5.30;99.90;;;;;;5081235;28;20033;-72
2023/01/03 00:38:35;;;;;;;2.05;1.20;;;5.30;99.90;;;;;;5072605;28;20112;-72
2023/01/03 00:41:09;;;;;;;2.97;0.98;;;5.30;99.90;;;;;;5073938;28;20071;-72
2023/01/03 00:43:35;;;;;;;1.67;1.00;;;5.30;99.90;;;;;;5095100;28;20962;-73
2023/01/03 00:46:01;;;;;;;2.53;1.10;;;5.30;99.90;;;;;;5074368;28;20098;-72
2023/01/03 00:48:27;;;;;;;2.75;2.05;;;5.30;99.90;;;;;;5063847;28;20061;-72
2023/01/03 00:50:53;;;;;;;2.40;1.10;;;5.30;99.90;;;;;;5076232;28;20600;-73
2023/01/03 00:53:20;;;;;;;2.15;1.20;;;5.30;99.90;;;;;;5075660;28;20041;-73
2023/01/03 00:55:45;;;;;;;2.47;1.20;;;5.30;99.90;;;;;;5088408;28;20063;-73
2023/01/03 00:58:11;;;;;;;5.55;1.80;;;5.20;99.90;;;;;;5076050;28;20052;-72
2023/01/03 01:00:37;;;;;;;2.67;1.48;;;5.20;99.90;;;;;;5078555;28;20083;-73
2023/01/03 01:03:02;;;;;;;3.42;1.30;;;5.20;99.90;;;;;;5048661;28;20067;-72
2023/01/03 01:05:29;;;;;;;2.20;1.40;;;5.20;99.90;;;;;;5068914;28;20056;-72
2023/01/03 01:07:55;;;;;;;2.17;1.20;;;5.20;99.90;;;;;;5073768;28;20397;-72
2023/01/03 01:10:21;;;;;;;2.25;1.20;;;5.20;99.90;;;;;;5069305;28;20044;-72
2023/01/03 01:12:47;;;;;;;2.65;1.20;;;5.20;99.90;;;;;;5059978;28;20038;-73
2023/01/03 01:15:13;;;;;;;3.50;1.80;;;5.20;99.90;;;;;;5081948;28;20037;-72
2023/01/03 01:17:39;;;;;;;3.53;1.90;;;5.20;99.90;;;;;;5070526;28;20040;-72
2023/01/03 01:20:05;;;;;;;2.58;1.52;;;5.20;99.90;;;;;;5070601;28;20718;-72
2023/01/03 01:22:32;;;;;;;1.98;1.10;;;5.20;99.90;;;;;;5073988;28;20041;-73
2023/01/03 01:24:58;;;;;;;3.55;1.70;;;5.30;99.90;;;;;;5060968;28;20032;-72
2023/01/03 01:27:23;;;;;;;5.07;1.73;;;5.20;99.90;;;;;;5071066;28;20097;-73
2023/01/03 01:29:49;;;;;;;3.28;1.77;;;5.30;99.90;;;;;;5069305;28;20036;-72
2023/01/03 01:32:15;;;;;;;2.15;1.42;;;5.30;99.90;;;;;;5075073;28;20036;-72
2023/01/03 01:34:41;;;;;;;6.40;2.45;;;5.30;99.90;;;;;;5077629;28;20036;-72
2023/01/03 01:37:06;;;;;;;3.50;1.70;;;5.20;99.90;;;;;;5074627;28;20040;-72
2023/01/03 01:39:32;;;;;;;4.25;1.77;;;5.20;99.90;;;;;;5074842;28;20035;-73
2023/01/03 01:44:51;;;;;;;3.00;1.70;;;5.20;99.90;;;;;;5064584;28;20167;-72
2023/01/03 01:47:25;;;;;;;2.92;1.80;;;5.20;99.90;;;;;;5062869;28;20045;-73
2023/01/03 01:50:11;;;;;;;2.47;1.38;;;5.20;99.90;;;;;;5089479;27;20040;-73
2023/01/03 01:52:39;;;;;;;;;;;5.20;99.90;;;;;;5066840;28;20051;-73
2023/01/03 01:55:11;;;;;;;3.28;1.83;;;5.20;99.90;;;;;;5080737;28;20003;-73
2023/01/03 01:57:38;;;;;;;5.00;1.75;;;5.20;99.90;;;;;;5071109;28;20101;-72
2023/01/03 02:00:06;;;;;;;5.43;1.63;;;5.10;99.90;;;;;;5074347;28;20058;-72
2023/01/03 02:02:32;;;;;;;3.58;1.63;;;5.10;99.90;;;;;;5070593;28;20051;-72
2023/01/03 02:04:59;;;;;;;3.38;1.85;;;5.10;99.90;;;;;;5070144;28;20053;-72
2023/01/03 02:07:25;;;;;;;4.10;2.03;;;5.00;99.90;;;;;;5069726;28;20055;-72
2023/01/03 02:09:54;;;;;;;4.43;1.90;;;5.00;99.90;;;;;;5070125;28;20028;-73
2023/01/03 02:15:34;;;;;;;5.85;2.28;;;4.90;99.90;;;;;;5076568;28;20040;-73
2023/01/03 02:18:11;;;;;;;4.40;2.20;;;4.90;99.90;;;;;;5075217;28;20066;-72
2023/01/03 02:21:04;;;;;;;4.38;2.45;;;4.90;99.90;;;;;;5071796;28;21103;-72
2023/01/03 02:24:04;;;;;;;5.00;2.28;;;4.80;99.90;;;;;;5074210;28;20047;-73
2023/01/03 02:26:49;;;;;;;4.30;2.05;;;4.80;99.90;;;;;;5084354;27;20106;-72
2023/01/03 02:29:32;;;;;;;7.90;1.75;;;4.80;99.90;;;;;;5069157;28;20128;-72
2023/01/03 02:32:06;;;;;;;4.60;2.25;;;4.80;99.90;;;;;;5080044;28;20044;-72
2023/01/03 02:34:47;;;;;;;3.78;1.83;;;4.80;99.90;;;;;;5075454;28;20554;-72
2023/01/03 02:37:35;;;;;;;5.38;2.83;;;4.80;99.90;;;;;;5074014;28;20044;-73
2023/01/03 02:40:15;;;;;;;4.05;2.42;;;4.80;99.90;;;;;;5079687;28;20028;-73
2023/01/03 02:43:18;;;;;;;6.53;2.83;;;4.80;99.90;;;;;;5059876;28;20041;-72
2023/01/03 02:46:05;;;;;;;3.75;1.77;;;4.80;99.90;;;;;;5073784;28;20408;-72
2023/01/03 02:48:55;;;;;;;5.75;2.10;;;4.80;99.90;;;;;;5065922;28;20034;-72
2023/01/03 02:51:39;;;;;;;3.00;1.98;;;4.70;99.90;;;;;;5081995;28;20409;-73
2023/01/03 02:54:09;;;;;;;4.03;1.92;;;4.70;99.90;;;;;;5071838;28;20498;-72
2023/01/03 02:56:39;;;;;;;3.03;1.75;;;4.70;99.90;;;;;;5071680;28;20036;-72
2023/01/03 02:59:15;;;;;;;3.70;2.00;;;4.70;99.90;;;;;;5071728;28;20066;-72
2023/01/03 03:01:43;;;;;;;4.10;1.83;;;4.70;99.90;;;;;;5073744;28;20039;-73
2023/01/03 03:04:12;;;;;;;3.55;1.85;;;4.70;99.90;;;;;;5073009;28;20135;-73
2023/01/03 03:06:42;;;;;;;4.55;2.53;;;4.70;99.90;;;;;;5072557;28;20086;-72
2023/01/03 03:09:07;;;;;;;4.07;1.92;;;4.70;99.90;;;;;;5068492;28;20036;-73
2023/01/03 03:14:26;;;;;;;5.68;2.45;;;4.70;99.90;;;;;;5069370;28;20040;-73
2023/01/03 03:16:55;;;;;;;5.70;2.55;;;4.70;99.90;;;;;;5070989;28;20036;-73
2023/01/03 03:25:22;;;;;;;5.88;2.15;;;4.60;99.90;;;;;;5070561;28;20698;-72
2023/01/03 03:30:38;;;;;;;5.78;2.63;;;4.60;99.90;;;;;;5067618;28;20052;-73
2023/01/03 03:33:05;;;;;;;5.45;2.40;;;4.60;99.90;;;;;;5067344;28;20040;-73
2023/01/03 03:35:47;;;;;;;5.88;2.22;;;4.60;99.90;;;;;;5051662;28;20074;-73
2023/01/03 03:38:17;;;;;;;5.25;2.60;;;4.50;99.90;;;;;;5074420;28;20035;-73
2023/01/03 03:46:40;;;;;;;6.80;3.45;;;4.50;99.90;;;;;;5071465;28;20345;-73
2023/01/03 03:52:05;;;;;;;5.53;2.97;;;4.50;99.90;;;;;;5079265;28;20048;-73
2023/01/03 03:54:35;;;;;;;8.65;2.80;;;4.60;99.90;;;;;;5072554;28;20489;-73
2023/01/03 03:57:27;;;;;;;5.93;3.17;;;4.60;99.90;;;;;;5063040;28;20043;-73
2023/01/03 03:59:57;;;;;;;6.50;2.90;;;4.60;99.90;;;;;;5062791;28;20090;-73
2023/01/03 04:02:26;;;;;;;4.57;2.40;;;4.60;99.90;;;;;;5069589;28;20035;-73
2023/01/03 04:04:56;;;;;;;6.10;3.00;;;4.60;99.90;;;;;;5063828;28;20090;-73
2023/01/03 04:07:22;;;;;;;5.72;2.50;;;4.60;99.90;;;;;;5072167;28;20469;-73
2023/01/03 04:09:48;;;;;;;5.93;3.47;;;4.60;99.90;;;;;;5069024;28;20060;-72
2023/01/03 04:12:13;;;;;;;7.43;3.20;;;4.60;99.90;;;;;;5073865;28;20067;-72
2023/01/03 04:14:39;;;;;;;7.13;3.80;;;4.60;99.90;;;;;;5075100;28;20064;-72
2023/01/03 04:17:04;;;;;;;5.20;2.38;;;4.60;99.90;;;;;;5065103;28;20119;-72
2023/01/03 04:19:30;;;;;;;7.20;2.60;;;4.70;99.90;;;;;;5072438;28;20163;-72
2023/01/03 04:21:55;;;;;;;7.68;3.22;;;4.60;99.90;;;;;;5069374;28;20036;-72
2023/01/03 04:24:21;;;;;;;5.03;2.70;;;4.60;99.90;;;;;;5071194;28;20043;-72
2023/01/03 04:26:47;;;;;;;4.57;2.70;;;4.60;99.90;;;;;;5065340;28;20070;-72
2023/01/03 04:29:13;;;;;;;6.65;2.63;;;4.70;99.90;;;;;;5068883;28;20501;-72
2023/01/03 04:31:38;;;;;;;4.45;2.55;;;4.70;99.90;;;;;;5065712;28;20043;-72
2023/01/03 04:34:04;;;;;;;7.03;3.60;;;4.70;99.90;;;;;;5062789;28;20042;-72
2023/01/03 04:36:29;;;;;;;6.80;2.95;;;4.70;99.90;;;;;;5069695;28;20045;-72
2023/01/03 04:38:55;;;;;;;5.22;2.83;;;4.70;99.90;;;;;;5069546;28;20393;-72
2023/01/03 04:41:21;;;;;;;5.10;2.65;;;4.70;99.90;;;;;;5071453;28;20088;-72
2023/01/03 04:44:03;;;;;;;7.95;3.35;;;4.70;99.90;;;;;;5054924;28;20226;-72
2023/01/03 04:46:35;;;;;;;5.00;2.47;;;4.70;99.90;;;;;;5051421;28;20800;-72
2023/01/03 04:49:01;;;;;;;4.38;2.60;;;4.70;99.90;;;;;;5068353;28;20032;-72
2023/01/03 04:51:27;;;;;;;6.93;2.92;;;4.70;99.90;;;;;;5072987;28;20081;-72
2023/01/03 04:53:53;;;;;;;6.70;3.47;;;4.70;99.90;;;;;;5055387;28;20032;-72
2023/01/03 04:56:27;;;;;;;5.72;2.72;;;4.70;99.90;;;;;;5070382;28;20063;-72
2023/01/03 04:58:53;;;;;;;8.63;2.70;;;4.80;99.90;;;;;;5069886;28;20039;-72
2023/01/03 05:01:19;;;;;;;6.15;2.75;;;4.80;99.90;;;;;;5050781;28;20032;-72
2023/01/03 05:03:45;;;;;;;5.88;2.78;;;4.80;99.90;;;;;;5069450;28;20039;-72
2023/01/03 05:06:11;;;;;;;7.05;3.05;;;4.80;99.90;;;;;;5070816;28;20446;-72
2023/01/03 05:08:40;;;;;;;6.90;2.92;;;4.80;99.90;;;;;;5072613;28;20045;-72
2023/01/03 05:11:06;;;;;;;6.75;2.88;;;4.80;99.90;;;;;;5070511;28;20047;-72
2023/01/03 05:13:33;;;;;;;6.10;2.83;;;4.80;99.90;;;;;;5071749;28;20718;-72
2023/01/03 05:16:25;;;;;;;5.30;2.53;;;4.80;99.90;;;;;;5068941;28;20110;-72
2023/01/03 05:18:52;;;;;;;5.63;3.15;;;4.80;99.90;;;;;;5051885;28;20049;-72
2023/01/03 05:26:48;;;;;;;6.35;3.33;;;4.80;99.90;;;;;;5071080;28;20040;-72
2023/01/03 05:29:18;;;;;;;15.55;3.10;;;4.80;99.90;;;;;;5054091;28;20059;-73
2023/01/03 05:31:44;;;;;;;5.80;3.33;;;4.80;99.90;;;;;;5074832;28;20032;-72
2023/01/03 05:34:10;;;;;;;6.80;3.47;;;4.80;99.90;;;;;;5070291;28;20047;-72
2023/01/03 05:36:35;;;;;;;6.30;3.28;;;4.70;99.90;;;;;;5079065;28;20466;-72
2023/01/03 05:39:01;;;;;;;5.68;3.05;;;4.80;99.90;;;;;;5067859;28;20032;-72
2023/01/03 05:44:10;;;;;;;5.22;2.58;;;4.70;99.90;;;;;;5077075;28;20036;-72
2023/01/03 05:46:36;;;;;;;5.72;3.10;;;4.70;99.90;;;;;;5091811;28;20036;-73
2023/01/03 05:49:02;;;;;;;8.05;3.53;;;4.60;99.90;;;;;;5072375;28;20051;-72
2023/01/03 05:51:27;;;;;;;6.43;3.47;;;4.60;99.90;;;;;;5070126;28;20050;-72
2023/01/03 05:53:53;;;;;;;8.55;3.95;;;4.60;99.90;;;;;;5074551;28;20118;-72
2023/01/03 05:56:18;;;;;;;6.03;2.85;;;4.60;99.90;;;;;;5073988;28;20498;-72
2023/01/03 05:58:44;;;;;;;5.28;3.05;;;4.50;99.90;;;;;;5075423;28;20038;-72
2023/01/03 06:01:12;;;;;;;7.25;3.10;;;4.60;99.90;;;;;;5067605;28;20404;-72
2023/01/03 06:03:38;;;;;;;13.02;3.80;;;4.50;99.90;;;;;;5068798;28;20054;-73
2023/01/03 06:06:05;;;;;;;4.90;2.65;;;4.50;99.90;;;;;;5071586;28;20044;-73
2023/01/03 06:08:32;;;;;;;6.38;2.90;;;4.50;99.90;;;;;;5072306;28;20040;-72
2023/01/03 06:10:57;;;;;;;6.82;3.25;;;4.50;99.90;;;;;;5073111;28;20036;-72
2023/01/03 06:13:23;;;;;;;6.53;2.88;;;4.50;99.90;;;;;;5073300;28;20086;-72
2023/01/03 06:18:35;;;;;;;9.15;3.45;;;4.40;99.90;;;;;;5074836;28;20466;-72
2023/01/03 06:21:04;;;;;;;7.88;3.55;;;4.40;99.90;;;;;;5078162;28;20512;-73
2023/01/03 06:23:30;;;;;;;5.70;2.47;;;4.40;99.90;;;;;;5067982;28;20044;-72
2023/01/03 06:25:55;;;;;;;10.50;3.22;;;4.30;99.90;;;;;;5071497;28;20040;-73
2023/01/03 06:28:21;;;;;;;8.15;4.22;;;4.30;99.90;;;;;;5079799;28;20044;-72
2023/01/03 06:30:47;;;;;;;13.98;4.43;;;4.20;99.90;;;;;;5076489;28;20074;-72
2023/01/03 06:33:12;;;;;;;8.02;4.15;;;4.20;99.90;;;;;;5068447;28;20060;-73
2023/01/03 06:35:38;;;;;;;7.45;3.85;;;4.10;99.90;;;;;;5071573;28;20028;-72
2023/01/03 06:38:04;;;;;;;7.50;3.58;;;4.10;99.90;;;;;;5053988;28;20036;-72
2023/01/03 06:40:29;;;;;;;6.90;2.85;;;4.10;99.90;;;;;;5070302;28;20571;-72
2023/01/03 06:42:55;;;;;;;6.38;3.80;;;4.10;99.90;;;;;;5072071;28;20481;-72
2023/01/03 06:53:37;;;;;;;6.50;3.60;;;4.00;99.90;;;;;;5071089;28;20665;-73
2023/01/03 06:56:03;;;;;;;11.68;4.03;;;4.00;99.90;;;;;;5068530;28;20147;-73
2023/01/03 06:58:29;;;;;;;6.75;3.47;;;4.00;99.90;;;;;;5074393;28;20417;-73
2023/01/03 07:00:57;;;;;;;7.80;3.63;;;3.90;99.90;;;;;;5068417;28;20041;-73
2023/01/03 07:03:23;;;;;;;6.38;4.05;;;3.90;99.90;;;;;;5059372;28;20063;-73
2023/01/03 07:05:48;;;;;;;8.27;4.03;;;3.90;99.90;;;;;;5076415;28;20129;-73
2023/01/03 07:08:14;;;;;;;6.95;3.40;;;3.90;99.90;;;;;;5076046;28;20044;-73
2023/01/03 07:10:40;;;;;;;6.95;3.80;;;4.00;99.90;;;;;;5061234;28;20452;-73
2023/01/03 07:15:50;;;;;;;8.55;4.63;;;4.00;99.90;;;;;;5069915;28;20040;-73
2023/01/03 07:18:15;;;;;;;8.57;4.07;;;4.00;99.90;;;;;;5071693;28;20073;-73
2023/01/03 07:20:42;;;;;;;7.43;3.90;;;4.00;99.90;;;;;;5058473;28;20051;-73
2023/01/03 07:23:08;;;;;;;7.78;3.90;;;4.00;99.90;;;;;;5084117;28;20043;-73
2023/01/03 07:25:34;;;;;;;9.77;4.35;;;3.90;99.90;;;;;;5076773;28;20043;-73
2023/01/03 07:27:59;;;;;;;10.25;4.50;;;3.90;99.90;;;;;;5058306;28;20063;-73
2023/01/03 07:30:25;;;;;;;7.30;3.45;;;3.90;99.90;;;;;;5070755;28;20446;-73
2023/01/03 07:32:50;;;;;;;8.38;4.18;;;3.90;99.90;;;;;;5066562;28;20044;-73
2023/01/03 07:35:16;;;;;;;7.15;3.72;;;3.90;99.90;;;;;;5075973;28;20048;-73
2023/01/03 07:37:42;;;;;;;9.07;4.30;;;3.80;99.90;;;;;;5053902;28;20386;-73
2023/01/03 07:40:08;;;;;;;5.93;3.70;;;3.70;99.90;;;;;;5054443;28;20393;-72
2023/01/03 07:45:18;;;;;;;7.70;4.03;;;3.70;99.90;;;;;;5075791;28;20118;-73
2023/01/03 07:47:44;;;;;;;8.75;4.25;;;3.70;99.90;;;;;;5068701;28;20032;-72
2023/01/03 07:50:10;;;;;;;6.85;3.33;;;3.60;99.90;;;;;;5074344;28;20032;-72
2023/01/03 07:52:35;;;;;;;7.50;3.78;;;3.60;99.90;;;;;;5068771;28;20671;-72
2023/01/03 07:55:01;;;;;;;8.35;4.68;;;3.50;99.90;;;;;;5075242;28;20028;-72
2023/01/03 07:57:28;;;;;;;7.38;2.95;;;3.50;99.90;;;;;;5058269;28;20098;-72
2023/01/03 07:59:53;;;;;;;4.75;2.97;;;3.50;99.90;;;;;;5074936;28;20116;-72
2023/01/03 08:02:19;;;;;;;8.02;3.42;;;3.50;99.90;;;;;;5072774;28;20115;-73
2023/01/03 08:04:45;;;;;;;5.72;2.85;;;3.50;99.90;;;;;;5072680;28;20063;-72
2023/01/03 08:07:11;;;;;;;5.65;3.70;;;3.60;99.90;;;;;;5076739;28;20081;-72
2023/01/03 08:15:05;;;;;;;6.72;3.10;;;3.60;99.90;;;;;;5067841;28;20040;-73
2023/01/03 08:17:31;;;;;;;2.85;1.80;;;3.50;99.90;;;;;;5066913;28;20037;-72
2023/01/03 08:19:56;;;;;;;3.72;2.13;;;3.60;99.90;;;;;;5074290;28;20062;-72
2023/01/03 08:22:22;;;;;;;4.57;2.28;;;3.50;99.90;;;;;;5074574;28;20511;-73
2023/01/03 08:24:47;;;;;;;4.45;2.53;;;3.50;99.90;;;;;;5062405;28;20032;-73
2023/01/03 08:27:13;;;;;;;5.03;2.55;;;3.50;99.90;;;;;;5055666;28;20460;-73
2023/01/03 08:29:38;;;;;;;4.25;2.45;;;3.40;99.90;;;;;;5072705;28;20043;-72
2023/01/03 08:32:05;;;;;;;4.63;2.40;;;3.40;99.90;;;;;;5066773;28;20413;-73
2023/01/03 08:34:35;;;;;;;4.85;2.58;;;3.50;99.90;;;;;;5056039;28;20564;-73
2023/01/03 08:37:06;;;;;;;4.60;3.03;;;3.50;99.90;;;;;;5057368;28;20036;-73
2023/01/03 08:39:38;;;;;;;4.20;2.50;;;3.50;99.90;;;;;;5073286;28;20037;-73
2023/01/03 08:42:07;;;;;;;6.00;3.00;;;3.50;99.90;;;;;;5072353;28;20413;-72
2023/01/03 08:44:33;;;;;;;6.90;2.75;;;3.60;99.90;;;;;;5079791;28;20098;-73
2023/01/03 08:47:03;;;;;;;6.13;3.05;;;3.60;99.90;;;;;;5077765;28;20044;-72
2023/01/03 08:49:29;;;;;;;7.20;3.22;;;3.70;99.90;;;;;;5073905;28;20777;-72
2023/01/03 08:51:55;;;;;;;5.15;2.50;;;3.80;99.90;;;;;;5074080;28;20090;-72
2023/01/03 08:54:21;;;;;;;5.63;3.38;;;3.80;99.90;;;;;;5078475;28;20115;-72
2023/01/03 08:56:46;;;;;;;6.72;3.75;;;3.90;99.90;;;;;;5078991;28;20041;-72
2023/01/03 08:59:12;;;;;;;5.85;3.00;;;4.00;99.90;;;;;;5080281;28;20470;-74
2023/01/03 09:01:38;;;;;;;6.22;3.67;;;4.00;99.90;;;;;;5060310;28;20489;-71
2023/01/03 09:04:04;;;;;;;6.13;2.78;;;4.10;99.90;;;;;;5067972;28;20204;-72
2023/01/03 09:06:30;;;;;;;8.57;3.88;;;4.20;99.90;;;;;;5070627;28;20414;-72
2023/01/03 09:08:56;;;;;;;7.20;3.33;;;4.30;99.90;;;;;;5080097;28;20052;-72
2023/01/03 09:11:21;;;;;;;7.75;3.63;;;4.30;99.90;;;;;;5077650;28;20047;-72
2023/01/03 09:13:47;;;;;;;7.53;4.18;;;4.30;99.90;;;;;;5070664;28;20487;-72
2023/01/03 09:16:15;;;;;;;6.90;3.20;;;4.40;99.90;;;;;;5070514;28;20044;-72
2023/01/03 09:18:41;;;;;;;9.18;4.22;;;4.40;99.90;;;;;;5054244;28;20028;-72
2023/01/03 09:21:07;;;;;;;7.78;4.45;;;4.50;99.90;;;;;;5068411;28;20124;-73
2023/01/03 09:23:34;;;;;;;8.70;4.13;;;4.50;99.90;;;;;;5077627;28;20044;-72
2023/01/03 09:26:00;;;;;;;9.15;4.30;;;4.50;99.90;;;;;;5077619;28;20041;-72
2023/01/03 09:28:25;;;;;;;10.00;3.97;;;4.50;99.90;;;;;;5070603;28;20407;-72
2023/01/03 09:30:51;;;;;;;11.43;3.97;;;4.60;99.90;;;;;;5070343;28;20041;-72
2023/01/03 09:33:17;;;;;;;7.60;3.80;;;4.70;99.90;;;;;;5070540;28;20051;-72
2023/01/03 09:35:43;;;;;;;10.82;4.88;;;4.70;99.90;;;;;;5053359;28;20036;-72
2023/01/03 09:38:09;;;;;;;9.30;4.13;;;4.70;99.90;;;;;;5070734;28;20036;-72
2023/01/03 09:40:44;;;;;;;12.63;5.65;;;4.80;99.90;;;;;;5070610;28;20434;-72
2023/01/03 09:43:18;;;;;;;;;;;4.80;99.90;;;;;;5071824;28;20041;-72
2023/01/03 09:45:50;;;;;;;12.48;5.32;;;4.90;99.90;;;;;;5090357;28;19916;-72
2023/01/03 09:48:19;;;;;;;11.23;5.65;;;5.00;99.90;;;;;;5077782;28;20385;-72
2023/01/03 09:50:46;;;;;;;11.85;5.30;;;5.00;99.90;;;;;;5090428;28;20040;-72
2023/01/03 10:05:47;;;;;;;10.40;4.72;;;5.20;99.90;;;;;;5069989;28;20501;-72
2023/01/03 10:08:44;;;;;;;10.05;4.45;;;5.30;99.90;;;;;;5096736;28;20088;-72
2023/01/03 10:11:38;;;;;;;10.38;4.93;;;5.30;99.90;;;;;;5075750;28;20498;-72
2023/01/03 10:14:31;;;;;;;10.98;5.13;;;5.30;99.90;;;;;;5076400;28;20036;-72
2023/01/03 10:17:17;;;;;;;9.52;5.32;;;5.30;99.90;;;;;;5081171;28;20051;-72
2023/01/03 10:20:07;;;;;;;13.80;4.90;;;5.30;99.90;;;;;;5068038;28;20394;-73
2023/01/03 10:22:36;;;;;;;13.48;5.20;;;5.40;99.90;;;;;;5079878;28;20040;-72
2023/01/03 10:25:19;;;;;;;14.88;6.53;;;5.40;99.90;;;;;;5073080;28;20429;-72
2023/01/03 10:27:50;;;;;;;14.00;6.07;;;5.40;99.90;;;;;;5078461;28;20109;-72
2023/01/03 10:30:18;;;;;;;12.85;6.03;;;5.50;99.90;;;;;;5094773;28;20136;-72
2023/01/03 10:32:59;;;;;;;16.10;5.85;;;5.50;99.90;;;;;;5063864;28;20075;-72
2023/01/03 10:35:33;;;;;;;15.50;6.40;;;5.50;99.90;;;;;;5078054;28;20101;-72
2023/01/03 10:38:00;;;;;;;15.10;5.40;;;5.50;99.90;;;;;;5075432;28;20508;-72
2023/01/03 10:40:49;;;;;;;13.55;6.07;;;5.50;99.90;;;;;;5077449;28;20048;-72
2023/01/03 10:43:18;;;;;;;13.95;5.95;;;5.60;99.90;;;;;;5072553;28;20284;-72
2023/01/03 10:45:59;;;;;;;13.95;5.15;;;5.60;99.90;;;;;;5083497;28;20074;-72
2023/01/03 10:48:33;;;;;;;15.68;5.97;;;5.70;99.90;;;;;;5070691;28;20448;-72
2023/01/03 10:50:59;;;;;;;10.65;4.68;;;5.70;99.90;;;;;;5070779;28;20036;-72
2023/01/03 10:53:25;;;;;;;14.93;5.72;;;5.70;99.90;;;;;;5076087;28;20093;-72
2023/01/03 10:55:53;;;;;;;13.32;5.65;;;5.80;99.90;;;;;;5076589;28;20516;-72
2023/01/03 10:58:24;;;;;;;11.60;6.15;;;5.80;99.90;;;;;;5054912;28;20055;-72
2023/01/03 11:00:52;;;;;;;13.68;5.55;;;5.80;99.90;;;;;;5057557;28;20532;-73
2023/01/03 11:03:21;;;;;;;10.75;5.30;;;5.80;99.90;;;;;;5064086;28;20094;-73
2023/01/03 11:06:00;;;;;;;16.92;6.50;;;5.80;99.90;;;;;;5071446;28;20093;-73
2023/01/03 11:08:43;;;;;;;10.77;4.95;;;5.80;99.90;;;;;;5070389;28;20090;-72
2023/01/03 11:11:32;;;;;;;10.95;5.25;;;5.90;99.90;;;;;;5070063;28;20406;-72
2023/01/03 11:14:08;;;;;;;11.98;5.38;;;5.90;99.90;;;;;;5076553;28;20600;-72
2023/01/03 11:16:34;;;;;;;11.52;5.53;;;5.90;99.90;;;;;;5075254;28;20594;-72
2023/01/03 11:19:02;;;;;;;11.65;5.80;;;5.90;99.90;;;;;;5072018;28;20081;-72
2023/01/03 11:21:52;;;;;;;17.25;6.65;;;5.90;99.90;;;;;;5074965;28;20044;-72
2023/01/03 11:24:44;;;;;;;14.27;5.47;;;6.00;99.90;;;;;;5074918;28;20131;-71
2023/01/03 11:27:21;;;;;;;13.48;5.22;;;6.00;99.90;;;;;;5063258;28;20150;-72
2023/01/03 11:30:17;;;;;;;10.57;5.03;;;6.00;99.90;;;;;;5063751;28;20050;-72
2023/01/03 11:32:54;;;;;;;13.65;5.95;;;6.10;99.90;;;;;;5069097;28;20059;-72
2023/01/03 11:35:35;;;;;;;15.00;6.38;;;6.10;99.90;;;;;;5072336;28;20051;-72
2023/01/03 11:38:12;;;;;;;16.02;6.38;;;6.20;99.90;;;;;;5082214;28;20039;-73
2023/01/03 11:40:57;;;;;;;10.88;5.47;;;6.20;99.90;;;;;;5059636;28;20047;-72
2023/01/03 11:43:44;;;;;;;11.70;5.25;;;6.20;99.90;;;;;;5077110;28;20040;-72
2023/01/03 11:46:25;;;;;;;15.35;5.60;;;6.20;99.90;;;;;;5072166;28;20421;-73
2023/01/03 11:49:12;;;;;;;10.98;4.80;;;6.30;99.90;;;;;;5073697;28;20047;-71
2023/01/03 11:51:57;;;;;;;11.50;5.55;;;6.20;99.90;;;;;;5070260;28;20546;-72
2023/01/03 11:54:51;;;;;;;10.10;5.28;;;6.30;99.90;;;;;;5081718;28;20044;-72
2023/01/03 11:57:47;;;;;;;8.30;4.53;;;6.30;99.90;;;;;;5071811;28;20072;-72
2023/01/03 12:00:47;;;;;;;10.73;5.67;;;6.30;99.90;;;;;;5069519;28;20403;-72
2023/01/03 12:03:51;;;;;;;9.82;4.50;;;6.30;99.90;;;;;;5068051;28;20504;-72
2023/01/03 12:06:21;;;;;;;10.73;4.68;;;6.30;99.90;;;;;;5078363;28;20060;-72
2023/01/03 12:08:57;;;;;;;11.63;4.72;;;6.30;99.90;;;;;;5059490;28;20402;-72
2023/01/03 12:11:41;;;;;;;9.98;4.22;;;6.30;99.90;;;;;;5061650;28;20094;-74
2023/01/03 12:14:24;;;;;;;9.10;4.70;;;6.30;99.90;;;;;;5072677;28;20044;-76
2023/01/03 12:17:03;;;;;;;10.35;4.32;;;6.30;99.90;;;;;;5049543;28;20044;-72
2023/01/03 12:19:31;;;;;;;9.55;4.00;;;6.30;99.90;;;;;;5074465;28;20040;-72
2023/01/03 12:22:12;;;;;;;10.85;5.00;;;6.30;99.90;;;;;;5075538;28;20144;-72
2023/01/03 12:24:48;;;;;;;8.02;3.70;;;6.40;99.90;;;;;;5074814;28;20048;-73
2023/01/03 12:27:22;;;;;;;9.05;4.55;;;6.40;99.90;;;;;;5051514;28;20036;-72
2023/01/03 12:30:03;;;;;;;9.45;4.22;;;6.40;99.90;;;;;;5079630;28;20123;-72
2023/01/03 12:32:54;;;;;;;9.20;3.97;;;6.40;99.90;;;;;;5090047;28;20405;-72
2023/01/03 12:35:39;;;;;;;7.72;3.70;;;6.50;99.90;;;;;;5082152;28;20504;-72
2023/01/03 12:38:05;;;;;;;8.45;4.00;;;6.50;99.90;;;;;;5065891;28;20253;-73
2023/01/03 12:40:59;;;;;;;7.45;4.05;;;6.50;99.90;;;;;;5077460;28;20109;-72
2023/01/03 12:43:45;;;;;;;7.60;3.20;;;6.50;99.90;;;;;;5074378;28;20048;-72
2023/01/03 12:46:17;;;;;;;14.85;8.48;;;6.60;99.90;;;;;;5060792;28;20193;-72
2023/01/03 12:48:52;;;;;;;19.48;8.82;;;6.60;99.90;;;;;;5067470;28;20446;-72
2023/01/03 12:51:23;;;;;;;8.85;4.40;;;6.60;99.90;;;;;;5076928;28;20175;-72
2023/01/03 12:54:18;;;;;;;6.72;3.33;;;6.60;99.90;;;;;;5062688;28;20035;-72
2023/01/03 12:57:10;;;;;;;8.23;3.88;;;6.70;99.90;;;;;;5063455;28;20070;-72
2023/01/03 13:00:03;;;;;;;7.25;3.50;;;6.60;99.90;;;;;;5078948;28;20028;-72
2023/01/03 13:02:40;;;;;;;6.50;3.42;;;6.70;99.90;;;;;;5081965;28;20046;-72
2023/01/03 13:05:17;;;;;;;7.72;3.28;;;6.70;99.90;;;;;;5081412;28;20180;-72
2023/01/03 13:07:51;;;;;;;10.82;4.13;;;6.70;99.90;;;;;;5072012;28;20043;-72
2023/01/03 13:10:19;;;;;;;7.95;3.60;;;6.70;99.90;;;;;;5067912;28;20044;-72
2023/01/03 13:12:53;;;;;;;10.23;3.70;;;6.70;99.90;;;;;;5073935;28;20047;-72
2023/01/03 13:15:27;;;;;;;8.25;3.92;;;6.80;99.90;;;;;;5075223;28;20493;-72
2023/01/03 13:17:53;;;;;;;10.32;4.10;;;6.80;99.90;;;;;;5069554;28;20040;-72
2023/01/03 13:20:28;;;;;;;7.95;3.38;;;6.80;99.90;;;;;;5072815;28;20523;-72
2023/01/03 13:22:55;;;;;;;6.93;3.13;;;6.80;99.90;;;;;;5060442;28;20044;-72
2023/01/03 13:25:29;;;;;;;7.15;3.10;;;6.80;99.90;;;;;;5074399;28;20085;-72
2023/01/03 13:27:59;;;;;;;5.15;3.00;;;6.80;99.90;;;;;;5073551;28;20051;-72
2023/01/03 13:30:29;;;;;;;8.50;4.10;;;6.80;99.90;;;;;;5059397;28;20044;-72
2023/01/03 13:33:05;;;;;;;9.48;3.50;;;6.80;99.90;;;;;;5072057;28;20037;-72
2023/01/03 13:35:43;;;;;;;10.70;3.75;;;6.80;99.90;;;;;;5077987;28;20513;-72
2023/01/03 13:38:15;;;;;;;9.75;3.40;;;6.90;99.90;;;;;;5076130;28;20067;-73
2023/01/03 13:40:45;;;;;;;6.13;3.00;;;6.90;99.90;;;;;;5079206;28;20036;-72
2023/01/03 13:43:15;;;;;;;8.43;4.28;;;6.90;99.90;;;;;;5057674;28;20032;-72
2023/01/03 13:45:41;;;;;;;7.20;3.63;;;6.90;99.90;;;;;;5077315;28;20136;-72
2023/01/03 13:48:29;;;;;;;7.40;3.92;;;6.90;99.90;;;;;;5057241;28;20106;-72
2023/01/03 13:51:13;;;;;;;7.75;3.15;;;6.90;99.90;;;;;;5075010;28;20527;-72
2023/01/03 13:53:52;;;;;;;7.63;2.92;;;6.90;99.90;;;;;;5065358;28;20042;-72
2023/01/03 13:56:25;;;;;;;9.68;3.33;;;7.00;99.90;;;;;;5073150;28;20048;-72
2023/01/03 13:59:08;;;;;;;6.50;3.53;;;7.00;99.90;;;;;;5070188;28;20066;-72
2023/01/03 14:01:58;;;;;;;7.72;3.17;;;7.00;99.90;;;;;;5078844;28;20542;-73
2023/01/03 14:04:48;;;;;;;7.57;3.28;;;7.00;99.90;;;;;;5075601;28;20569;-72
2023/01/03 14:07:38;;;;;;;7.35;3.00;;;7.00;99.90;;;;;;5081019;28;20118;-72
2023/01/03 14:10:51;;;;;;;6.30;2.50;;;7.00;99.90;;;;;;5063958;28;20203;-72
2023/01/03 14:13:38;;;;;;;6.03;3.03;;;7.00;99.90;;;;;;5081930;28;20049;-72
2023/01/03 14:16:29;;;;;;;6.30;3.05;;;7.00;99.90;;;;;;5082879;28;20032;-72
2023/01/03 14:19:02;;;;;;;6.18;2.60;;;7.10;99.90;;;;;;5063095;28;20043;-72
2023/01/03 14:21:50;;;;;;;8.05;3.10;;;7.10;99.90;;;;;;5076976;28;20090;-72
2023/01/03 14:24:27;;;;;;;7.30;3.35;;;7.10;99.90;;;;;;5079053;28;20536;-72
2023/01/03 14:27:02;;;;;;;6.85;3.63;;;7.10;99.90;;;;;;5080871;28;20242;-72
2023/01/03 14:29:28;;;;;;;11.27;2.88;;;7.10;99.90;;;;;;5077111;28;20043;-73